• Join FlightAware (Why Join?)
  • Login
  • US Flag 
11:12PM EDT


 

Airport Tracker/Info


-or-


 

Live Flight TrackerFlight Track Log ✈ ASQ5685 ✈ 21-Jun-2013 ✈ KATL - KIAD

Flight Track Log - Related Links

Times and Time Zones

All times are in EDT time to prevent confusion due to time zone crossing. See the ASQ5685 flight status page for this flight to view local times or setup timezone preferences in your user account.

Time Position Orientation Groundspeed Altitude Reporting Facility
EDT Latitude Longitude Course Direction KTS MPH feet Rate Location/Type
09:36AM 33.6333 -84.4000 48° Northeast 168 193 2,100  Level Atlanta TRACON
09:37AM 33.6333 -84.3333 90° East 229 264 3,400 2,100 Climbing Atlanta TRACON
09:38AM 33.8541 -84.1696 73° East  Level Estimated
09:38AM 33.6333 -84.2500 90° East 261 300 6,100  Level Atlanta TRACON
09:39AM 33.9264 -84.0832 54° Northeast  Level Estimated
09:39AM 33.6333 -84.1667 90° East 270 311 8,600  Level Atlanta TRACON
09:39AM 33.6336 -84.1036 90° East 275 316 9,800 1,260 Climbing Atlanta Center
09:40AM 33.9027 -83.9638 103° East  Level FlightAware Approximate
09:40AM 33.6836 -84.0314 50° Northeast 292 336 10,700  Level Atlanta Center
09:41AM 33.9758 -83.8782 48° Northeast  Level Estimated
09:41AM 33.7503 -83.9489 46° Northeast 322 371 12,500  Level Atlanta Center
09:42AM 33.8169 -83.8664 46° Northeast 342 394 14,300 1,560 Climbing Atlanta Center
09:43AM 33.8836 -83.7761 48° Northeast 347 399 15,700 1,440 Climbing Atlanta Center
09:44AM 33.9503 -83.6833 49° Northeast 360 414 17,200 1,260 Climbing Atlanta Center
09:45AM 34.0125 -83.5853 53° Northeast 366 421 18,300 1,140 Climbing Atlanta Center
09:46AM 34.0769 -83.4844 52° Northeast 366 421 19,500 1,080 Climbing Atlanta Center
09:47AM 34.1389 -83.3836 53° Northeast 366 421 20,500 900 Climbing Atlanta Center
09:48AM 34.2031 -83.2778 54° Northeast 377 434 21,300 720 Climbing Atlanta Center
09:49AM 34.2711 -83.1717 52° Northeast 395 455 22,000 600 Climbing Atlanta Center
09:50AM 34.3311 -83.0728 54° Northeast 400 460 22,600 600 Climbing Atlanta Center
09:51AM 34.3989 -82.9589 54° Northeast 410 472 23,300 660 Climbing Atlanta Center
09:52AM 34.4689 -82.8494 52° Northeast 412 474 24,000 660 Climbing Atlanta Center
09:53AM 34.5408 -82.7350 53° Northeast 417 480 24,700 660 Climbing Atlanta Center
09:54AM 34.6147 -82.6253 51° Northeast 417 480 25,400 660 Climbing Atlanta Center
09:55AM 34.6800 -82.5106 55° Northeast 411 473 26,100 660 Climbing Atlanta Center
09:56AM 34.7517 -82.3956 53° Northeast 417 480 26,800 660 Climbing Atlanta Center
09:57AM 34.8211 -82.2828 53° Northeast 417 480 27,500 660 Climbing Atlanta Center
09:58AM 34.8903 -82.1650 54° Northeast 417 480 28,200 720 Climbing Atlanta Center
09:59AM 34.9656 -82.0442 53° Northeast 412 474 29,000 720 Climbing Atlanta Center
10:00AM 35.0367 -81.9256 54° Northeast 412 474 29,700 600 Climbing Atlanta Center
10:01AM 35.0931 -81.8203 57° Northeast 420 483 30,300 600 Climbing Atlanta Center
10:02AM 35.1536 -81.7017 58° Northeast 413 475 31,000 300 Climbing Atlanta Center
10:03AM 35.2181 -81.5831 56° Northeast 418 481 31,000  Level Atlanta Center
10:04AM 35.2822 -81.4589 58° Northeast 424 488 31,000  Level Atlanta Center
10:05AM 35.3442 -81.3372 58° Northeast 417 480 31,000  Level Atlanta Center
10:06AM 35.4061 -81.2156 58° Northeast 422 486 31,000  Level Atlanta Center
10:07AM 35.4722 -81.0883 57° Northeast 422 486 31,000  Level Atlanta Center
10:08AM 35.5358 -80.9686 57° Northeast 422 486 31,000  Level Atlanta Center
10:09AM 35.5994 -80.8461 57° Northeast 422 486 31,000  Level Atlanta Center
10:10AM 35.6611 -80.7261 58° Northeast 417 480 31,000  Level Atlanta Center
10:12AM 35.8006 -80.4553 58° Northeast 428 493 31,000  Level Washington Center
10:13AM 35.8617 -80.3336 58° Northeast 421 484 31,000  Level Washington Center
10:14AM 35.9228 -80.2142 58° Northeast 421 484 31,000  Level Washington Center
10:15AM 35.9858 -80.0919 57° Northeast 416 479 31,000  Level Washington Center
10:16AM 36.0397 -79.9872 58° Northeast 403 464 31,000  Level Washington Center
10:17AM 36.1089 -79.8703 54° Northeast 403 464 31,000  Level Washington Center
10:18AM 36.1756 -79.7503 55° Northeast 409 471 31,000 -240 Level Washington Center
10:19AM 36.2489 -79.6228 54° Northeast 415 478 30,600 -600 Descending Washington Center
10:20AM 36.3131 -79.5075 55° Northeast 427 491 29,800 -840 Descending Washington Center
10:21AM 36.3886 -79.3667 56° Northeast 433 498 29,000 -840 Descending Washington Center
10:22AM 36.4528 -79.2511 55° Northeast 444 511 28,200 -840 Descending Washington Center
10:23AM 36.5342 -79.1153 53° Northeast 449 517 27,400 -840 Descending Washington Center
10:24AM 36.6067 -78.9867 55° Northeast 449 517 26,600 -1,020 Descending Washington Center
10:25AM 36.6772 -78.8525 57° Northeast 449 517 25,400 -780 Descending Washington Center
10:27AM 36.7450 -78.7283 56° Northeast 450 518 25,000 -240 Descending Washington Center
10:28AM 36.8239 -78.5836 56° Northeast 432 497 25,000 -600 Level Washington Center
10:29AM 36.8969 -78.4956 44° Northeast 411 473 23,900 -1,260 Descending Washington Center
10:30AM 36.9911 -78.3978 40° Northeast 411 473 22,500 -960 Descending Washington Center
10:31AM 37.0831 -78.2994 40° Northeast 423 487 22,000 -300 Descending Washington Center
10:32AM 37.1814 -78.1986 39° Northeast 416 479 22,000 -300 Level Washington Center
10:33AM 37.2600 -78.1283 35° Northeast 404 465 21,500 -540 Descending Washington Center
10:34AM 37.3594 -78.0583 29° Northeast 398 458 21,000 -300 Descending Washington Center
10:35AM 37.4611 -77.9858 30° Northeast 407 468 21,000  Level Washington Center
10:36AM 37.5711 -77.9003 32° Northeast 414 476 21,000 -60 Level Washington Center
10:37AM 37.6622 -77.8347 30° Northeast 414 476 20,900 -1,260 Descending Washington Center
10:38AM 37.7658 -77.7592 30° Northeast 419 482 18,500 -2,280 Descending Washington Center
10:39AM 37.8650 -77.6856 30° Northeast 419 482 16,500 -2,400 Descending Washington Center
10:40AM 37.9644 -77.6094 31° Northeast 397 457 13,800 -2,340 Descending Washington Center
10:41AM 38.0403 -77.5561 29° Northeast 374 430 11,900 -1,860 Descending Washington Center
10:42AM 38.1164 -77.5000 30° Northeast 342 394 10,100 -900 Descending Washington Center
10:43AM 38.1839 -77.4489 31° Northeast 302 348 10,100 -60 Level Washington Center
10:44AM 38.2533 -77.4056 26° Northeast 283 326 10,000 -720 Descending Washington Center
10:45AM 38.3269 -77.3622 25° Northeast 278 320 8,800 -1,260 Descending Washington Center
10:46AM 38.4042 -77.3589 North 273 314 7,500 -1,320 Descending Washington Center
10:47AM 38.4792 -77.3633 357° North 273 314 6,200 -1,260 Descending Washington Center
10:48AM 38.5522 -77.3678 357° North 273 314 5,100 -720 Descending Washington Center
10:49AM 38.6272 -77.3669 360° North 273 314 4,800 -660 Descending Washington Center
10:50AM 38.7003 -77.3658 North 273 314 3,800 -900 Descending Washington Center
10:51AM 38.7833 -77.3500 North 260 299 3,000 -420 Descending Potomac TRACON
10:52AM 38.8500 -77.3500 360° North 247 284 3,000  Level Potomac TRACON
10:53AM 38.9167 -77.3500 360° North 251 289 3,000  Level Potomac TRACON
10:54AM 38.9833 -77.3500 360° North 240 276 3,000 -120 Level Potomac TRACON
10:55AM 39.0500 -77.3500 360° North 204 235 2,800 -240 Descending Potomac TRACON